createdAt,value
2018-09-02T00:01:03.214Z,91.00
2018-09-02T00:03:31.610Z,90.90
2018-09-02T00:05:59.966Z,90.90
2018-09-02T00:08:28.328Z,91.10
2018-09-02T00:10:56.678Z,91.10
2018-09-02T00:13:25.054Z,91.10
2018-09-02T00:15:53.405Z,91.50
2018-09-02T00:18:21.796Z,91.40
2018-09-02T00:20:50.174Z,91.50
2018-09-02T00:23:18.486Z,91.50
2018-09-02T00:25:46.915Z,91.70
2018-09-02T00:28:15.260Z,91.80
2018-09-02T00:30:43.661Z,91.80
2018-09-02T00:33:12.005Z,91.70
2018-09-02T00:35:40.355Z,91.60
2018-09-02T00:38:08.758Z,91.60
2018-09-02T00:40:37.103Z,91.30
2018-09-02T00:43:05.905Z,91.70
2018-09-02T00:45:34.254Z,91.50
2018-09-02T00:48:02.608Z,91.50
2018-09-02T00:50:31.035Z,91.70
2018-09-02T00:52:59.424Z,91.80
2018-09-02T00:55:27.817Z,91.90
2018-09-02T00:57:56.235Z,91.70
2018-09-02T01:00:24.548Z,91.70
2018-09-02T01:02:52.885Z,92.00
2018-09-02T01:05:21.221Z,91.90
2018-09-02T01:07:49.658Z,92.00
2018-09-02T01:10:18.000Z,91.90
2018-09-02T01:12:46.820Z,91.90
2018-09-02T01:15:15.196Z,92.00
2018-09-02T01:17:43.649Z,92.30
2018-09-02T01:20:11.968Z,92.40
2018-09-02T01:22:40.259Z,92.20
2018-09-02T01:25:08.979Z,92.40
2018-09-02T01:27:37.296Z,92.50
2018-09-02T01:30:05.939Z,92.40
2018-09-02T01:32:34.360Z,92.50
2018-09-02T01:35:02.677Z,92.50
2018-09-02T01:37:31.007Z,92.80
2018-09-02T01:39:59.341Z,92.80
2018-09-02T01:42:27.780Z,92.80
2018-09-02T01:44:56.146Z,92.90
2018-09-02T01:47:24.479Z,93.10
2018-09-02T01:49:52.804Z,92.80
2018-09-02T01:52:21.204Z,92.80
2018-09-02T01:54:49.541Z,92.90
2018-09-02T01:57:17.897Z,92.80
2018-09-02T01:59:46.336Z,92.70
2018-09-02T02:02:14.792Z,92.40
2018-09-02T02:04:43.516Z,92.70
2018-09-02T02:07:13.558Z,92.90
2018-09-02T02:09:42.363Z,92.90
2018-09-02T02:12:10.709Z,93.20
2018-09-02T02:14:39.061Z,92.90
2018-09-02T02:17:07.437Z,92.80
2018-09-02T02:19:36.171Z,92.90
2018-09-02T02:22:04.499Z,93.30
2018-09-02T02:24:32.950Z,93.00
2018-09-02T02:27:01.317Z,93.20
2018-09-02T02:29:29.830Z,93.10
2018-09-02T02:31:58.589Z,93.10
2018-09-02T02:34:26.959Z,93.00
2018-09-02T02:36:55.324Z,93.20
2018-09-02T02:39:23.730Z,92.90
2018-09-02T02:41:52.151Z,93.10
2018-09-02T02:44:20.549Z,93.10
2018-09-02T02:46:48.891Z,92.90
2018-09-02T02:49:17.335Z,93.20
2018-09-02T02:51:45.775Z,93.40
2018-09-02T02:54:14.184Z,93.50
2018-09-02T02:56:42.615Z,93.50
2018-09-02T02:59:11.032Z,93.20
2018-09-02T03:01:39.648Z,93.20
2018-09-02T03:04:07.981Z,93.60
2018-09-02T03:06:36.489Z,93.50
2018-09-02T03:09:06.409Z,93.60
2018-09-02T03:11:34.778Z,93.70
2018-09-02T03:14:03.608Z,93.50
2018-09-02T03:16:31.923Z,93.70
2018-09-02T03:19:00.227Z,93.70
2018-09-02T03:21:28.578Z,93.80
2018-09-02T03:23:56.976Z,93.70
2018-09-02T03:26:25.326Z,93.70
2018-09-02T03:28:53.643Z,93.70
2018-09-02T03:31:22.048Z,93.50
2018-09-02T03:33:50.376Z,93.80
2018-09-02T03:36:18.834Z,94.00
2018-09-02T03:38:47.198Z,94.00
2018-09-02T03:41:15.524Z,94.20
2018-09-02T03:43:44.317Z,93.90
2018-09-02T03:46:12.652Z,94.00
2018-09-02T03:48:40.964Z,94.20
2018-09-02T03:51:09.289Z,94.20
2018-09-02T03:53:37.654Z,94.20
2018-09-02T03:56:06.178Z,94.10
2018-09-02T03:58:34.738Z,94.40
2018-09-02T04:01:03.225Z,94.10
2018-09-02T04:03:31.617Z,94.10
2018-09-02T04:05:59.992Z,94.40
2018-09-02T04:08:28.821Z,94.30
2018-09-02T04:10:57.144Z,94.40
2018-09-02T04:13:25.486Z,94.40
2018-09-02T04:15:53.824Z,94.30
2018-09-02T04:18:22.244Z,94.30
2018-09-02T04:20:50.639Z,94.20
2018-09-02T04:23:18.996Z,94.30
2018-09-02T04:25:47.371Z,94.50
2018-09-02T04:28:15.876Z,94.50
2018-09-02T04:30:44.280Z,94.60
2018-09-02T04:33:12.675Z,94.60
2018-09-02T04:35:41.001Z,94.40
2018-09-02T04:38:09.355Z,94.30
2018-09-02T04:40:37.733Z,94.80
2018-09-02T04:43:06.100Z,94.60
2018-09-02T04:45:34.486Z,94.50
2018-09-02T04:48:02.829Z,94.70
2018-09-02T04:50:31.180Z,94.70
2018-09-02T04:52:59.493Z,94.50
2018-09-02T04:55:27.875Z,94.70
2018-09-02T04:57:56.312Z,94.80
2018-09-02T05:00:24.976Z,94.60
2018-09-02T05:02:53.317Z,94.80
2018-09-02T05:05:21.650Z,94.80
2018-09-02T05:07:49.990Z,95.00
2018-09-02T05:10:18.311Z,95.10
2018-09-02T05:12:46.764Z,95.20
2018-09-02T05:15:15.183Z,95.40
2018-09-02T05:17:43.666Z,95.10
2018-09-02T05:20:12.002Z,95.10
2018-09-02T05:22:40.376Z,95.00
2018-09-02T05:25:08.766Z,95.30
2018-09-02T05:27:37.125Z,95.50
2018-09-02T05:30:06.260Z,95.30
2018-09-02T05:32:34.586Z,95.60
2018-09-02T05:35:02.980Z,95.40
2018-09-02T05:37:31.333Z,95.30
2018-09-02T05:39:59.657Z,95.70
2018-09-02T05:42:27.986Z,95.90
2018-09-02T05:44:56.344Z,95.90
2018-09-02T05:47:24.769Z,95.60
2018-09-02T05:49:53.117Z,95.80
2018-09-02T05:52:21.470Z,95.80
2018-09-02T05:54:50.028Z,95.80
2018-09-02T05:57:18.468Z,96.10
2018-09-02T05:59:46.840Z,96.40
2018-09-02T06:02:15.261Z,96.00
2018-09-02T06:04:43.641Z,96.00
2018-09-02T06:07:12.006Z,96.30
2018-09-02T06:09:40.759Z,96.10
2018-09-02T06:12:09.215Z,96.00
2018-09-02T06:14:39.161Z,96.10
2018-09-02T06:17:07.547Z,96.10
2018-09-02T06:19:35.909Z,96.10
2018-09-02T06:22:04.248Z,96.00
2018-09-02T06:24:32.834Z,96.70
2018-09-02T06:27:01.186Z,96.50
2018-09-02T06:29:29.521Z,96.60
2018-09-02T06:31:57.889Z,97.10
2018-09-02T06:34:26.244Z,96.70
2018-09-02T06:36:54.673Z,97.00
2018-09-02T06:39:24.124Z,96.80
2018-09-02T06:41:52.539Z,96.80
2018-09-02T06:44:20.868Z,97.10
2018-09-02T06:46:49.228Z,97.30
2018-09-02T06:49:17.573Z,97.20
2018-09-02T06:51:45.940Z,97.00
2018-09-02T06:54:14.372Z,97.30
2018-09-02T06:56:42.855Z,97.20
2018-09-02T06:59:11.197Z,97.50
2018-09-02T07:01:39.608Z,97.40
2018-09-02T07:04:07.965Z,97.40
2018-09-02T07:06:36.327Z,97.10
2018-09-02T07:09:05.053Z,97.10
2018-09-02T07:11:33.440Z,96.80
2018-09-02T07:14:01.842Z,97.00
2018-09-02T07:16:30.257Z,96.90
2018-09-02T07:18:58.640Z,97.00
2018-09-02T07:21:27.217Z,97.00
2018-09-02T07:23:55.901Z,96.80
2018-09-02T07:26:24.263Z,96.90
2018-09-02T07:28:52.926Z,96.80
2018-09-02T07:31:21.521Z,96.80
2018-09-02T07:33:50.024Z,97.20
2018-09-02T07:36:18.575Z,96.90
2018-09-02T07:38:48.254Z,96.50
2018-09-02T07:41:16.707Z,96.50
2018-09-02T07:43:45.315Z,96.50
2018-09-02T07:46:13.629Z,96.40
2018-09-02T07:48:41.993Z,96.50
2018-09-02T07:51:11.321Z,96.30
2018-09-02T07:53:39.689Z,96.30
2018-09-02T07:56:08.158Z,96.00
2018-09-02T07:58:36.596Z,96.10
2018-09-02T08:01:05.123Z,96.10
2018-09-02T08:03:33.711Z,95.90
2018-09-02T08:06:02.099Z,95.80
2018-09-02T08:08:30.548Z,95.70
2018-09-02T08:10:58.932Z,95.60
2018-09-02T08:13:27.296Z,95.60
2018-09-02T08:15:55.871Z,95.50
2018-09-02T08:18:24.285Z,95.20
2018-09-02T08:20:52.801Z,95.30
2018-09-02T08:23:21.304Z,95.40
2018-09-02T08:25:49.702Z,95.20
2018-09-02T08:28:18.157Z,95.30
2018-09-02T08:30:46.665Z,95.30
2018-09-02T08:33:15.136Z,95.20
2018-09-02T08:35:43.856Z,95.20
2018-09-02T08:38:12.267Z,95.10
2018-09-02T08:40:40.871Z,94.90
2018-09-02T08:43:09.247Z,94.90
2018-09-02T08:45:37.662Z,94.90
2018-09-02T08:48:06.218Z,94.40
2018-09-02T08:50:34.957Z,94.40
2018-09-02T08:53:03.414Z,94.40
2018-09-02T08:55:31.849Z,94.40
2018-09-02T08:58:01.328Z,94.40
2018-09-02T09:00:30.053Z,94.50
2018-09-02T09:02:58.429Z,93.90
2018-09-02T09:05:26.993Z,93.70
2018-09-02T09:07:55.400Z,93.90
2018-09-02T09:10:23.942Z,94.00
2018-09-02T09:12:52.709Z,93.90
2018-09-02T09:15:21.145Z,93.80
2018-09-02T09:17:49.640Z,93.60
2018-09-02T09:20:18.182Z,93.40
2018-09-02T09:22:46.784Z,93.40
2018-09-02T09:25:15.321Z,93.10
2018-09-02T09:27:43.891Z,93.10
2018-09-02T09:30:12.379Z,92.80
2018-09-02T09:32:40.940Z,93.10
2018-09-02T09:35:09.708Z,92.80
2018-09-02T09:37:39.352Z,92.30
2018-09-02T09:40:08.097Z,92.80
2018-09-02T09:42:36.595Z,92.20
2018-09-02T09:45:05.026Z,92.20
2018-09-02T09:47:33.848Z,92.60
2018-09-02T09:50:02.315Z,92.40
2018-09-02T09:52:30.867Z,91.80
2018-09-02T09:54:59.380Z,91.70
2018-09-02T09:57:28.132Z,91.50
2018-09-02T09:59:57.282Z,91.70
2018-09-02T10:02:25.733Z,91.70
2018-09-02T10:04:54.244Z,91.50
2018-09-02T10:07:22.773Z,91.50
2018-09-02T10:09:51.169Z,91.50
2018-09-02T10:12:19.595Z,91.50
2018-09-02T10:14:48.093Z,90.90
2018-09-02T10:17:16.797Z,91.00
2018-09-02T10:19:45.203Z,91.20
2018-09-02T10:22:13.929Z,90.90
2018-09-02T10:24:42.609Z,90.70
2018-09-02T10:27:11.266Z,90.30
2018-09-02T10:29:39.980Z,90.10
2018-09-02T10:32:08.874Z,90.40
2018-09-02T10:34:37.356Z,90.60
2018-09-02T10:37:05.878Z,90.50
2018-09-02T10:39:35.184Z,90.40
2018-09-02T10:42:03.700Z,90.00
2018-09-02T10:44:32.028Z,90.30
2018-09-02T10:47:01.048Z,89.40
2018-09-02T10:49:29.502Z,90.10
2018-09-02T10:51:57.817Z,88.20
2018-09-02T10:54:26.333Z,88.30
2018-09-02T10:56:54.719Z,87.90
2018-09-02T10:59:23.132Z,86.80
2018-09-02T11:01:51.575Z,86.80
2018-09-02T11:04:20.349Z,86.60
2018-09-02T11:06:49.073Z,85.60
2018-09-02T11:09:17.803Z,86.00
2018-09-02T11:11:46.471Z,85.60
2018-09-02T11:14:15.076Z,85.80
2018-09-02T11:16:43.741Z,85.10
2018-09-02T11:19:12.237Z,85.60
2018-09-02T11:21:40.555Z,85.00
2018-09-02T11:24:08.878Z,85.20
2018-09-02T11:26:37.243Z,84.10
2018-09-02T11:29:05.639Z,83.80
2018-09-02T11:31:33.970Z,82.70
2018-09-02T11:34:02.455Z,84.20
2018-09-02T11:36:30.877Z,84.00
2018-09-02T11:38:59.304Z,83.70
2018-09-02T11:41:27.626Z,83.00
2018-09-02T11:43:55.946Z,82.80
2018-09-02T11:46:24.439Z,81.50
2018-09-02T11:48:52.797Z,80.80
2018-09-02T11:51:21.148Z,77.70
2018-09-02T11:53:50.026Z,79.00
2018-09-02T11:56:19.224Z,79.30
2018-09-02T11:58:48.716Z,78.70
2018-09-02T12:01:17.506Z,79.40
2018-09-02T12:03:46.640Z,80.40
2018-09-02T12:06:15.191Z,79.80
2018-09-02T12:08:43.628Z,78.20
2018-09-02T12:11:11.974Z,78.20
2018-09-02T12:13:40.238Z,75.40
2018-09-02T12:16:08.641Z,75.10
2018-09-02T12:18:37.276Z,76.00
2018-09-02T12:21:05.584Z,75.40
2018-09-02T12:23:34.061Z,72.20
2018-09-02T12:26:02.389Z,71.70
2018-09-02T12:28:30.757Z,70.70
2018-09-02T12:30:59.082Z,70.70
2018-09-02T12:33:27.462Z,71.10
2018-09-02T12:35:55.758Z,68.80
2018-09-02T12:38:24.126Z,70.30
2018-09-02T12:40:53.405Z,70.40
2018-09-02T12:43:21.687Z,70.80
2018-09-02T12:45:50.060Z,69.60
2018-09-02T12:48:18.723Z,69.90
2018-09-02T12:50:46.750Z,69.60
2018-09-02T12:53:15.075Z,66.50
2018-09-02T12:55:43.515Z,67.40
2018-09-02T12:58:11.925Z,67.50
2018-09-02T13:00:40.392Z,67.40
2018-09-02T13:03:08.755Z,67.50
2018-09-02T13:05:37.179Z,67.20
2018-09-02T13:08:05.525Z,68.10
2018-09-02T13:10:33.850Z,67.10
2018-09-02T13:13:02.473Z,67.90
2018-09-02T13:15:30.876Z,66.20
2018-09-02T13:17:59.208Z,66.70
2018-09-02T13:20:27.590Z,66.00
2018-09-02T13:22:55.909Z,65.40
2018-09-02T13:25:24.291Z,64.70
2018-09-02T13:27:52.682Z,64.70
2018-09-02T13:30:21.004Z,65.20
2018-09-02T13:32:49.450Z,65.30
2018-09-02T13:35:17.750Z,65.70
2018-09-02T13:37:46.945Z,65.60
2018-09-02T13:40:15.555Z,63.30
2018-09-02T13:42:43.921Z,61.90
2018-09-02T13:45:12.221Z,60.60
2018-09-02T13:47:40.648Z,62.30
2018-09-02T13:50:08.938Z,60.00
2018-09-02T13:52:37.341Z,62.30
2018-09-02T13:55:05.829Z,59.80
2018-09-02T13:57:34.139Z,60.00
2018-09-02T14:00:02.602Z,59.30
2018-09-02T14:02:30.907Z,59.70
2018-09-02T14:04:59.228Z,60.90
2018-09-02T14:07:27.534Z,60.00
2018-09-02T14:09:55.860Z,61.70
2018-09-02T14:12:24.200Z,60.60
2018-09-02T14:14:52.541Z,60.20
2018-09-02T14:17:21.115Z,57.70
2018-09-02T14:19:49.757Z,58.30
2018-09-02T14:22:18.817Z,58.80
2018-09-02T14:24:47.525Z,59.10
2018-09-02T14:27:16.196Z,59.60
2018-09-02T14:29:44.582Z,58.90
2018-09-02T14:32:13.036Z,58.00
2018-09-02T14:34:42.441Z,58.40
2018-09-02T14:37:10.773Z,57.60
2018-09-02T14:39:39.076Z,58.40
2018-09-02T14:42:07.404Z,60.40
2018-09-02T14:44:35.918Z,59.50
2018-09-02T14:47:04.203Z,59.70
2018-09-02T14:49:32.542Z,59.40
2018-09-02T14:52:01.042Z,60.30
2018-09-02T14:54:29.385Z,61.00
2018-09-02T14:56:57.674Z,60.60
2018-09-02T14:59:26.008Z,61.10
2018-09-02T15:01:54.329Z,61.00
2018-09-02T15:04:22.845Z,60.90
2018-09-02T15:06:51.583Z,60.60
2018-09-02T15:09:20.721Z,60.80
2018-09-02T15:11:49.645Z,60.90
2018-09-02T15:14:18.696Z,59.60
2018-09-02T15:16:47.756Z,59.10
2018-09-02T15:19:17.184Z,59.30
2018-09-02T15:21:46.007Z,60.00
2018-09-02T15:24:14.592Z,59.80
2018-09-02T15:26:43.129Z,59.40
2018-09-02T15:29:11.851Z,59.50
2018-09-02T15:31:40.485Z,60.40
2018-09-02T15:34:09.231Z,58.90
2018-09-02T15:36:37.873Z,58.80
2018-09-02T15:39:08.601Z,57.90
2018-09-02T15:41:36.969Z,58.50
2018-09-02T15:44:05.395Z,58.50
2018-09-02T15:46:33.620Z,59.10
2018-09-02T15:49:02.200Z,58.50
2018-09-02T15:51:30.527Z,59.10
2018-09-02T15:53:58.833Z,59.10
2018-09-02T15:56:27.134Z,59.00
2018-09-02T15:58:55.465Z,58.70
2018-09-02T16:01:23.831Z,58.70
2018-09-02T16:03:52.136Z,60.60
2018-09-02T16:06:20.544Z,61.90
2018-09-02T16:08:49.060Z,62.50
2018-09-02T16:11:17.655Z,63.20
2018-09-02T16:13:46.157Z,63.50
2018-09-02T16:16:16.265Z,63.60
2018-09-02T16:18:46.376Z,63.90
2018-09-02T16:21:15.613Z,65.30
2018-09-02T16:23:44.528Z,65.40
2018-09-02T16:26:13.576Z,65.50
2018-09-02T16:28:42.497Z,65.50
2018-09-02T16:31:12.221Z,65.50
2018-09-02T16:33:41.695Z,65.70
2018-09-02T16:36:11.225Z,66.10
2018-09-02T16:38:39.560Z,65.80
2018-09-02T16:41:08.157Z,66.40
2018-09-02T16:43:36.974Z,66.70
2018-09-02T16:46:05.596Z,66.50
2018-09-02T16:48:34.048Z,66.70
2018-09-02T16:51:02.375Z,66.90
2018-09-02T16:53:30.670Z,67.40
2018-09-02T16:55:59.008Z,67.60
2018-09-02T16:58:27.326Z,68.30
2018-09-02T17:00:55.710Z,68.40
2018-09-02T17:03:28.557Z,68.90
2018-09-02T17:05:57.081Z,69.60
2018-09-02T17:08:25.500Z,70.30
2018-09-02T17:10:53.856Z,70.50
2018-09-02T17:13:22.367Z,71.00
2018-09-02T17:15:50.841Z,70.50
2018-09-02T17:18:19.513Z,71.10
2018-09-02T17:20:50.341Z,71.30
2018-09-02T17:23:19.162Z,71.10
2018-09-02T17:25:47.653Z,71.40
2018-09-02T17:28:16.489Z,71.20
2018-09-02T17:30:45.179Z,71.40
2018-09-02T17:33:14.464Z,71.50
2018-09-02T17:35:43.040Z,71.80
2018-09-02T17:38:11.392Z,72.10
2018-09-02T17:40:40.054Z,72.00
2018-09-02T17:43:08.488Z,72.40
2018-09-02T17:45:38.561Z,72.80
2018-09-02T17:48:08.096Z,72.90
2018-09-02T17:50:36.550Z,73.40
2018-09-02T17:53:05.689Z,74.40
2018-09-02T17:55:34.356Z,74.10
2018-09-02T17:58:03.292Z,74.40
2018-09-02T18:00:40.721Z,74.80
2018-09-02T18:03:09.565Z,75.10
2018-09-02T18:05:38.174Z,75.00
2018-09-02T18:08:07.195Z,75.40
2018-09-02T18:10:37.038Z,75.80
2018-09-02T18:13:06.045Z,76.10
2018-09-02T18:15:34.501Z,76.10
2018-09-02T18:18:03.221Z,77.50
2018-09-02T18:20:32.420Z,76.60
2018-09-02T18:23:01.402Z,77.00
2018-09-02T18:25:29.990Z,77.20
2018-09-02T18:28:01.160Z,77.10
2018-09-02T18:30:30.004Z,76.80
2018-09-02T18:32:59.152Z,77.80
2018-09-02T18:35:28.236Z,77.10
2018-09-02T18:37:57.086Z,77.20
2018-09-02T18:40:26.525Z,77.50
2018-09-02T18:42:55.656Z,77.90
2018-09-02T18:45:24.657Z,78.00
2018-09-02T18:47:54.220Z,78.30
2018-09-02T18:50:23.438Z,78.10
2018-09-02T18:52:52.886Z,78.30
2018-09-02T18:55:21.921Z,78.60
2018-09-02T18:58:10.188Z,78.80
2018-09-02T19:00:40.244Z,78.80
2018-09-02T19:03:09.571Z,78.60
2018-09-02T19:05:38.165Z,78.80
2018-09-02T19:08:07.185Z,79.20
2018-09-02T19:10:37.134Z,79.50
2018-09-02T19:13:07.127Z,79.70
2018-09-02T19:15:35.868Z,79.90
2018-09-02T19:18:04.797Z,80.00
2018-09-02T19:20:33.994Z,80.50
2018-09-02T19:23:02.889Z,80.90
2018-09-02T19:25:31.461Z,80.60
2018-09-02T19:28:00.136Z,80.90
2018-09-02T19:30:29.063Z,81.40
2018-09-02T19:32:58.502Z,81.60
2018-09-02T19:35:27.193Z,81.60
2018-09-02T19:37:55.579Z,81.80
2018-09-02T19:40:23.976Z,82.50
2018-09-02T19:42:52.294Z,82.90
2018-09-02T19:45:21.342Z,83.10
2018-09-02T19:47:50.232Z,83.20
2018-09-02T19:50:19.264Z,83.50
2018-09-02T19:52:47.952Z,83.80
2018-09-02T19:55:16.342Z,83.50
2018-09-02T19:57:44.864Z,84.00
2018-09-02T20:00:15.474Z,84.50
2018-09-02T20:02:44.159Z,84.70
2018-09-02T20:05:15.885Z,85.00
2018-09-02T20:07:49.183Z,85.00
2018-09-02T20:10:18.335Z,85.40
2018-09-02T20:12:48.056Z,85.20
2018-09-02T20:15:17.504Z,85.20
2018-09-02T20:17:46.902Z,85.40
2018-09-02T20:20:15.628Z,85.30
2018-09-02T20:22:44.800Z,85.70
2018-09-02T20:25:13.334Z,85.70
2018-09-02T20:27:41.855Z,85.90
2018-09-02T20:30:10.280Z,86.10
2018-09-02T20:32:38.715Z,86.10
2018-09-02T20:35:07.090Z,86.80
2018-09-02T20:37:35.590Z,86.70
2018-09-02T20:40:04.186Z,87.00
2018-09-02T20:42:32.562Z,87.10
2018-09-02T20:45:00.955Z,87.00
2018-09-02T20:47:30.217Z,87.50
2018-09-02T20:49:58.631Z,87.30
2018-09-02T20:52:27.268Z,87.70
2018-09-02T20:54:55.677Z,87.70
2018-09-02T20:57:24.170Z,88.00
2018-09-02T20:59:52.648Z,88.00
2018-09-02T21:02:21.581Z,88.60
2018-09-02T21:04:50.121Z,88.60
2018-09-02T21:07:18.967Z,88.60
2018-09-02T21:09:47.685Z,89.00
2018-09-02T21:12:16.446Z,89.00
2018-09-02T21:14:46.204Z,89.20
2018-09-02T21:17:18.709Z,89.30
2018-09-02T21:20:15.306Z,88.90
2018-09-02T21:22:45.241Z,89.20
2018-09-02T21:25:21.180Z,89.90
2018-09-02T21:28:08.143Z,90.10
2018-09-02T21:30:54.083Z,90.50
2018-09-02T21:33:29.826Z,90.50
2018-09-02T21:35:58.417Z,90.50
2018-09-02T21:38:27.259Z,90.50
2018-09-02T21:40:57.448Z,90.40
2018-09-02T21:43:26.236Z,90.60
2018-09-02T21:45:55.290Z,90.40
2018-09-02T21:48:24.054Z,90.60
2018-09-02T21:50:52.614Z,91.10
2018-09-02T21:53:20.998Z,90.70
2018-09-02T21:55:49.448Z,90.90
2018-09-02T21:58:18.429Z,91.20
2018-09-02T22:00:47.880Z,91.60
2018-09-02T22:03:16.409Z,91.70
2018-09-02T22:05:44.889Z,91.80
2018-09-02T22:08:13.381Z,92.00
2018-09-02T22:10:41.933Z,92.10
2018-09-02T22:13:10.422Z,92.40
2018-09-02T22:15:38.930Z,92.10
2018-09-02T22:18:07.501Z,92.60
2018-09-02T22:20:35.852Z,92.50
2018-09-02T22:23:04.669Z,93.00
2018-09-02T22:25:33.086Z,92.60
2018-09-02T22:28:01.611Z,93.10
2018-09-02T22:30:30.134Z,92.90
2018-09-02T22:32:58.783Z,93.00
2018-09-02T22:35:27.340Z,93.40
2018-09-02T22:37:56.025Z,93.30
2018-09-02T22:40:24.413Z,93.40
2018-09-02T22:42:52.982Z,93.40
2018-09-02T22:45:21.677Z,94.00
2018-09-02T22:47:50.252Z,93.80
2018-09-02T22:50:18.916Z,93.50
2018-09-02T22:52:47.648Z,93.60
2018-09-02T22:55:16.093Z,93.40
2018-09-02T22:57:46.819Z,93.60
2018-09-02T23:00:15.660Z,93.60
2018-09-02T23:02:44.310Z,93.50
2018-09-02T23:05:12.707Z,93.50
2018-09-02T23:07:41.312Z,93.70
2018-09-02T23:10:09.745Z,93.60
2018-09-02T23:12:38.180Z,93.70
2018-09-02T23:15:06.788Z,93.70
2018-09-02T23:17:35.217Z,94.00
2018-09-02T23:20:03.876Z,93.90
2018-09-02T23:22:32.273Z,93.80
2018-09-02T23:25:00.865Z,93.50
2018-09-02T23:27:29.438Z,93.80
2018-09-02T23:29:57.974Z,93.80
2018-09-02T23:32:26.334Z,94.00
2018-09-02T23:34:54.675Z,94.20
2018-09-02T23:37:22.987Z,94.40
2018-09-02T23:39:51.364Z,94.30
2018-09-02T23:42:19.798Z,94.40
2018-09-02T23:44:48.126Z,94.10
2018-09-02T23:47:16.481Z,94.10
2018-09-02T23:49:44.881Z,94.50
2018-09-02T23:52:14.290Z,94.50
2018-09-02T23:54:42.731Z,94.20
2018-09-02T23:57:11.064Z,94.70
2018-09-02T23:59:39.464Z,94.50
